Time;durP1;ratioP1;P1;durP2;ratioP2;P2;SDS_P1;SDS_P2;PMS_P1;PMS_P2;Temp;Humidity;BMP_temperature;BMP_pressure;BME280_temperature;BME280_humidity;BME280_pressure;Samples;Min_cycle;Max_cycle;Signal;HPM_P1;HPM_P2
2023/05/02 00:00:41;;;;;;;20.00;5.68;;;8.70;99.90;;;;;;5094723;28;20043;-24
2023/05/02 00:03:07;;;;;;;14.18;5.07;;;8.70;99.90;;;;;;5094670;28;20075;-24
2023/05/02 00:05:33;;;;;;;16.42;5.70;;;8.70;99.90;;;;;;5076614;28;20048;-24
2023/05/02 00:07:59;;;;;;;16.95;5.15;;;8.70;99.90;;;;;;5094568;28;20131;-24
2023/05/02 00:10:25;;;;;;;12.30;6.00;;;8.70;99.90;;;;;;5095162;28;20086;-24
2023/05/02 00:12:51;;;;;;;15.02;4.95;;;8.70;99.90;;;;;;5094554;28;20083;-23
2023/05/02 00:15:16;;;;;;;18.27;6.22;;;8.70;99.90;;;;;;5094372;28;20087;-23
2023/05/02 00:17:42;;;;;;;16.33;5.20;;;8.70;99.90;;;;;;5094472;28;20056;-24
2023/05/02 00:20:10;;;;;;;18.17;6.15;;;8.70;99.90;;;;;;5094408;28;20157;-23
2023/05/02 00:22:36;;;;;;;14.98;5.10;;;8.70;99.90;;;;;;5093387;28;20048;-23
2023/05/02 00:25:02;;;;;;;21.90;6.05;;;8.70;99.90;;;;;;5094171;28;20476;-23
2023/05/02 00:27:29;;;;;;;23.90;6.38;;;8.80;99.90;;;;;;5094529;28;20387;-24
2023/05/02 00:29:55;;;;;;;18.10;5.07;;;8.80;99.90;;;;;;5094205;28;20166;-24
2023/05/02 00:32:21;;;;;;;15.65;5.22;;;8.80;99.90;;;;;;5076062;28;20510;-23
2023/05/02 00:34:46;;;;;;;18.77;6.18;;;8.80;99.90;;;;;;5094570;28;20040;-23
2023/05/02 00:37:12;;;;;;;16.52;5.28;;;8.80;99.90;;;;;;5094098;28;20085;-23
2023/05/02 00:39:38;;;;;;;15.75;4.43;;;8.80;99.90;;;;;;5094073;28;20056;-23
2023/05/02 00:42:04;;;;;;;17.45;5.07;;;8.80;99.90;;;;;;5094014;28;20044;-23
2023/05/02 00:44:30;;;;;;;18.85;6.18;;;8.70;99.90;;;;;;5094549;28;20125;-23
2023/05/02 00:46:57;;;;;;;12.18;4.50;;;8.60;99.90;;;;;;5060171;28;20461;-23
2023/05/02 00:49:23;;;;;;;20.23;5.40;;;8.50;99.90;;;;;;5094041;28;20469;-23
2023/05/02 00:51:49;;;;;;;12.20;4.57;;;8.50;99.90;;;;;;5093966;28;20140;-23
2023/05/02 00:54:15;;;;;;;16.92;5.38;;;8.60;99.90;;;;;;5092639;28;20127;-23
2023/05/02 00:56:41;;;;;;;18.90;5.07;;;8.60;99.90;;;;;;5076061;28;20090;-23
2023/05/02 00:59:08;;;;;;;20.15;5.75;;;8.70;99.90;;;;;;5092855;28;20044;-23
2023/05/02 01:02:10;;;;;;;28.48;7.40;;;8.70;99.90;;;;;;5076156;28;20051;-23
2023/05/02 01:05:12;;;;;;;31.08;7.35;;;8.70;99.90;;;;;;5093674;28;20044;-23
2023/05/02 01:07:41;;;;;;;23.30;5.97;;;8.60;99.90;;;;;;5092599;28;20109;-23
2023/05/02 01:10:13;;;;;;;22.83;5.53;;;8.50;99.90;;;;;;5093982;28;20416;-23
2023/05/02 01:13:05;;;;;;;17.00;4.83;;;8.50;99.90;;;;;;5093594;28;20044;-23
2023/05/02 01:15:33;;;;;;;12.77;4.63;;;8.40;99.90;;;;;;5068788;28;20052;-23
2023/05/02 01:18:01;;;;;;;20.00;6.60;;;8.30;99.90;;;;;;5075054;28;20056;-23
2023/05/02 01:20:30;;;;;;;23.35;5.28;;;8.20;99.90;;;;;;5093490;28;20098;-24
2023/05/02 01:23:06;;;;;;;21.85;4.90;;;8.20;99.90;;;;;;5093595;28;20485;-24
2023/05/02 01:25:50;;;;;;;17.25;4.50;;;8.20;99.90;;;;;;5093601;28;20083;-23
2023/05/02 01:28:59;;;;;;;22.77;5.57;;;8.20;99.90;;;;;;5093605;28;20044;-23
2023/05/02 01:31:27;;;;;;;22.70;4.57;;;8.10;99.90;;;;;;5092596;28;20505;-23
2023/05/02 01:33:55;;;;;;;20.33;3.78;;;8.10;99.90;;;;;;5094020;28;20040;-23
2023/05/02 01:36:24;;;;;;;24.10;4.88;;;8.10;99.90;;;;;;5093445;28;20052;-23
2023/05/02 01:38:50;;;;;;;27.00;5.38;;;8.10;99.90;;;;;;5075047;28;20051;-23
2023/05/02 01:41:17;;;;;;;19.17;5.63;;;8.10;99.90;;;;;;5092243;28;20051;-23
2023/05/02 01:43:44;;;;;;;22.77;4.10;;;8.10;99.90;;;;;;5093378;28;20134;-24
2023/05/02 01:46:12;;;;;;;29.98;5.28;;;8.00;99.90;;;;;;5093355;28;20119;-23
2023/05/02 01:48:39;;;;;;;19.55;4.95;;;8.00;99.90;;;;;;5093334;28;20452;-23
2023/05/02 01:51:07;;;;;;;21.50;4.68;;;8.00;99.90;;;;;;5093347;28;20052;-24
2023/05/02 01:53:34;;;;;;;23.40;5.03;;;8.00;99.90;;;;;;5093899;28;20044;-24
2023/05/02 01:56:00;;;;;;;26.00;5.20;;;7.90;99.90;;;;;;5093305;28;20048;-24
2023/05/02 01:58:28;;;;;;;27.60;5.07;;;7.90;99.90;;;;;;5093508;28;20390;-24
2023/05/02 02:00:56;;;;;;;23.80;5.60;;;7.80;99.90;;;;;;5093262;28;20048;-23
2023/05/02 02:03:23;;;;;;;30.90;5.45;;;7.80;99.90;;;;;;5093040;28;20055;-24
2023/05/02 02:05:51;;;;;;;28.38;5.60;;;7.70;99.90;;;;;;5093049;28;20067;-24
2023/05/02 02:08:17;;;;;;;22.92;4.88;;;7.70;99.90;;;;;;5093194;28;20047;-23
2023/05/02 02:10:48;;;;;;;30.40;5.07;;;7.60;99.90;;;;;;5092197;28;20485;-23
2023/05/02 02:13:32;;;;;;;27.52;5.03;;;7.60;99.90;;;;;;5095880;28;20044;-24
2023/05/02 02:16:02;;;;;;;21.02;4.45;;;7.60;99.90;;;;;;5095368;28;20040;-23
2023/05/02 02:18:31;;;;;;;32.38;6.43;;;7.60;99.90;;;;;;5080172;28;20052;-24
2023/05/02 02:20:58;;;;;;;30.02;4.97;;;7.50;99.90;;;;;;5096649;28;20090;-23
2023/05/02 02:23:27;;;;;;;27.20;5.50;;;7.50;99.90;;;;;;5097179;28;20055;-23
2023/05/02 02:25:55;;;;;;;23.20;5.13;;;7.70;99.90;;;;;;5096563;28;20505;-23
2023/05/02 02:28:21;;;;;;;19.80;4.22;;;7.70;99.90;;;;;;5095536;28;20145;-24
2023/05/02 02:30:46;;;;;;;18.35;4.55;;;7.30;99.90;;;;;;5096454;28;20089;-23
2023/05/02 02:33:12;;;;;;;25.13;5.15;;;7.30;99.90;;;;;;5096466;28;20051;-23
2023/05/02 02:35:43;;;;;;;23.63;4.85;;;7.50;99.90;;;;;;5095138;28;20044;-23
2023/05/02 02:38:31;;;;;;;22.48;4.60;;;7.50;99.90;;;;;;5096059;28;20047;-24
2023/05/02 02:41:08;;;;;;;30.27;5.07;;;7.20;99.90;;;;;;5096684;28;20051;-23
2023/05/02 02:43:43;;;;;;;22.98;4.65;;;7.50;99.90;;;;;;5096843;28;20043;-23
2023/05/02 02:46:33;;;;;;;18.25;4.75;;;7.40;99.00;;;;;;5096533;28;20040;-23
2023/05/02 02:49:37;;;;;;;13.10;3.40;;;7.20;38.90;;;;;;5095017;28;20100;-24
2023/05/02 02:52:25;;;;;;;13.10;3.08;;;7.20;1.00;;;;;;5072012;28;20052;-24
2023/05/02 02:54:59;;;;;;;15.15;3.20;;;7.30;1.00;;;;;;5096832;28;20054;-23
2023/05/02 02:57:38;;;;;;;18.38;3.45;;;7.10;1.00;;;;;;5096072;28;20052;-23
2023/05/02 03:00:16;;;;;;;18.15;3.75;;;7.20;1.00;;;;;;5078967;28;20052;-23
2023/05/02 03:02:45;;;;;;;16.70;3.13;;;7.00;1.00;;;;;;5096527;28;20052;-23
2023/05/02 03:05:12;;;;;;;13.57;2.63;;;7.10;1.00;;;;;;5095499;28;20402;-23
2023/05/02 03:07:37;;;;;;;12.70;3.38;;;7.00;1.00;;;;;;5096380;28;20091;-23
2023/05/02 03:10:04;;;;;;;14.52;3.33;;;7.00;99.90;;;;;;5095758;28;20087;-23
2023/05/02 03:12:30;;;;;;;17.00;3.20;;;6.90;99.90;;;;;;5095714;28;20383;-23
2023/05/02 03:15:23;;;;;;;16.77;3.92;;;7.10;99.90;;;;;;5094495;28;20052;-23
2023/05/02 03:17:48;;;;;;;16.85;3.08;;;6.90;99.90;;;;;;5073983;28;20184;-23
2023/05/02 03:20:14;;;;;;;15.02;2.95;;;6.90;99.90;;;;;;5094082;28;20036;-24
2023/05/02 03:22:40;;;;;;;16.80;3.33;;;6.90;99.90;;;;;;5095393;28;20051;-24
2023/05/02 03:25:06;;;;;;;15.07;2.92;;;7.00;99.90;;;;;;5093266;28;20092;-24
2023/05/02 03:27:32;;;;;;;16.48;2.22;;;6.90;99.90;;;;;;5095949;28;20116;-24
2023/05/02 03:29:57;;;;;;;16.13;2.75;;;7.10;99.90;;;;;;5077515;28;20481;-23
2023/05/02 03:32:23;;;;;;;14.50;2.80;;;7.00;99.90;;;;;;5095556;28;20048;-23
2023/05/02 03:34:49;;;;;;;16.13;2.47;;;6.90;99.90;;;;;;5095724;28;20131;-24
2023/05/02 03:37:15;;;;;;;9.15;2.00;;;6.80;99.90;;;;;;5095194;28;20074;-24
2023/05/02 03:39:40;;;;;;;11.45;2.53;;;6.80;99.90;;;;;;5095434;28;20067;-23
2023/05/02 03:42:06;;;;;;;11.07;1.98;;;6.90;99.90;;;;;;5093903;28;20383;-23
2023/05/02 03:44:32;;;;;;;14.38;2.28;;;6.70;99.90;;;;;;5093890;28;20047;-23
2023/05/02 03:46:57;;;;;;;14.70;2.25;;;6.80;99.90;;;;;;5094927;28;20048;-23
2023/05/02 03:49:23;;;;;;;11.30;1.65;;;6.70;56.00;;;;;;5094986;28;20087;-23
2023/05/02 03:51:49;;;;;;;13.32;2.05;;;6.70;12.20;;;;;;5094914;28;20080;-23
2023/05/02 03:54:14;;;;;;;9.77;2.03;;;6.70;99.90;;;;;;5095610;28;20090;-23
2023/05/02 03:56:41;;;;;;;10.70;1.83;;;6.60;1.00;;;;;;5095634;28;20131;-23
2023/05/02 03:59:06;;;;;;;7.70;2.17;;;6.60;1.00;;;;;;5094355;28;20071;-24
2023/05/02 04:01:32;;;;;;;7.93;1.70;;;6.60;1.00;;;;;;5093535;28;20047;-24
2023/05/02 04:03:58;;;;;;;9.35;2.10;;;6.60;99.90;;;;;;5094691;28;20051;-24
2023/05/02 04:06:24;;;;;;;9.98;1.95;;;6.50;99.90;;;;;;5093504;28;20052;-24
2023/05/02 04:08:49;;;;;;;7.55;2.00;;;6.60;99.90;;;;;;5076809;28;20055;-24
2023/05/02 04:11:15;;;;;;;6.22;1.70;;;6.50;99.90;;;;;;5093883;28;20047;-24
2023/05/02 04:13:41;;;;;;;11.52;1.75;;;6.50;99.90;;;;;;5094533;28;20044;-24
2023/05/02 04:16:07;;;;;;;11.85;2.00;;;6.50;99.90;;;;;;5094266;28;20043;-23
2023/05/02 04:18:33;;;;;;;8.82;1.73;;;6.50;99.90;;;;;;5095650;28;20123;-24
2023/05/02 04:20:59;;;;;;;13.05;2.03;;;6.50;99.90;;;;;;5094249;28;20051;-23
2023/05/02 04:23:24;;;;;;;9.93;1.73;;;6.70;12.30;;;;;;5094281;28;20044;-23
2023/05/02 04:25:52;;;;;;;13.20;2.93;;;6.50;1.00;;;;;;5093670;28;20431;-24
2023/05/02 04:28:20;;;;;;;12.15;2.40;;;6.50;1.00;;;;;;5094774;28;20047;-24
2023/05/02 04:30:47;;;;;;;9.55;2.30;;;6.50;99.90;;;;;;5093177;28;20044;-24
2023/05/02 04:33:13;;;;;;;8.30;2.15;;;6.50;1.00;;;;;;5094164;28;20098;-23
2023/05/02 04:35:39;;;;;;;10.30;2.20;;;6.50;99.90;;;;;;5092634;28;20048;-24
2023/05/02 04:38:05;;;;;;;11.20;2.25;;;6.60;99.90;;;;;;5092929;28;20132;-24
2023/05/02 04:40:32;;;;;;;8.52;2.20;;;6.50;99.90;;;;;;5094094;28;20080;-24
2023/05/02 04:42:58;;;;;;;12.98;2.67;;;6.50;99.90;;;;;;5092827;28;20052;-24
2023/05/02 04:45:25;;;;;;;9.70;2.40;;;6.80;99.90;;;;;;5093000;28;20125;-24
2023/05/02 04:47:50;;;;;;;14.43;2.90;;;6.60;99.90;;;;;;5094313;28;20132;-24
2023/05/02 04:50:16;;;;;;;13.50;3.20;;;6.60;99.90;;;;;;5093796;28;20433;-24
2023/05/02 04:52:42;;;;;;;13.68;2.75;;;6.60;99.90;;;;;;5093933;28;20513;-24
2023/05/02 04:55:08;;;;;;;10.75;2.20;;;6.60;99.90;;;;;;5042515;28;20138;-24
2023/05/02 04:57:33;;;;;;;10.60;2.65;;;6.60;99.90;;;;;;5094334;28;20477;-24
2023/05/02 04:59:59;;;;;;;18.08;3.95;;;6.60;99.90;;;;;;5093826;28;20122;-24
2023/05/02 05:02:25;;;;;;;10.48;2.42;;;6.60;99.90;;;;;;5093031;28;20047;-24
2023/05/02 05:04:51;;;;;;;12.45;2.65;;;6.50;99.90;;;;;;5093705;28;20126;-24
2023/05/02 05:07:17;;;;;;;8.38;2.10;;;6.50;1.00;;;;;;5093694;28;20048;-24
2023/05/02 05:09:42;;;;;;;13.20;2.13;;;6.50;1.00;;;;;;5094006;28;20048;-24
2023/05/02 05:12:08;;;;;;;11.02;2.17;;;6.50;1.00;;;;;;5094537;28;20480;-25
2023/05/02 05:14:34;;;;;;;10.38;2.20;;;6.60;99.90;;;;;;5092609;28;20047;-24
2023/05/02 05:17:00;;;;;;;20.55;4.43;;;6.60;1.00;;;;;;5093298;28;20056;-24
2023/05/02 05:19:26;;;;;;;15.10;2.22;;;6.60;99.90;;;;;;5092672;28;20091;-24
2023/05/02 05:21:52;;;;;;;7.95;1.85;;;6.70;1.00;;;;;;5092447;28;20101;-25
2023/05/02 05:24:18;;;;;;;8.90;2.22;;;6.60;1.00;;;;;;5093620;28;20047;-24
2023/05/02 05:26:44;;;;;;;11.60;2.97;;;6.70;1.00;;;;;;5093644;28;20044;-25
2023/05/02 05:29:09;;;;;;;10.75;2.53;;;6.60;1.00;;;;;;5092376;28;20075;-25
2023/05/02 05:31:36;;;;;;;12.40;2.30;;;6.60;1.00;;;;;;5076606;28;20079;-24
2023/05/02 05:34:03;;;;;;;14.73;2.50;;;6.50;14.00;;;;;;5075604;28;20056;-24
2023/05/02 05:36:30;;;;;;;9.43;2.28;;;6.60;45.50;;;;;;5093381;28;20123;-24
2023/05/02 05:38:55;;;;;;;13.80;2.42;;;6.60;99.90;;;;;;5093377;28;20127;-24
2023/05/02 05:41:22;;;;;;;11.70;2.50;;;6.50;99.90;;;;;;5093866;28;20127;-25
2023/05/02 05:43:47;;;;;;;10.05;2.22;;;6.50;99.90;;;;;;5093315;28;20480;-24
2023/05/02 05:46:13;;;;;;;10.57;3.25;;;6.60;99.90;;;;;;5093588;28;20039;-25
2023/05/02 05:48:38;;;;;;;10.15;2.55;;;6.60;99.90;;;;;;5097339;28;20454;-24
2023/05/02 05:51:05;;;;;;;14.77;2.80;;;6.70;99.90;;;;;;5096039;28;20386;-25
2023/05/02 05:53:31;;;;;;;9.32;2.85;;;6.70;99.90;;;;;;5097718;28;20180;-25
2023/05/02 05:55:57;;;;;;;8.32;2.47;;;6.80;99.90;;;;;;5095892;28;20130;-24
2023/05/02 05:58:22;;;;;;;13.20;2.60;;;6.90;99.90;;;;;;5096150;28;20052;-25
2023/05/02 06:00:49;;;;;;;14.50;2.83;;;6.90;99.90;;;;;;5097294;28;20478;-25
2023/05/02 06:03:15;;;;;;;15.55;2.20;;;7.00;99.90;;;;;;5097014;28;20040;-25
2023/05/02 06:05:41;;;;;;;8.52;2.50;;;7.00;1.00;;;;;;5096906;28;20040;-25
2023/05/02 06:08:07;;;;;;;9.10;2.03;;;7.10;99.90;;;;;;5096885;28;20055;-25
2023/05/02 06:10:33;;;;;;;9.32;2.72;;;7.00;6.80;;;;;;5097351;28;20040;-25
2023/05/02 06:12:59;;;;;;;14.48;2.95;;;7.20;20.10;;;;;;5097297;28;20058;-25
2023/05/02 06:15:24;;;;;;;11.07;2.28;;;7.30;1.00;;;;;;5095588;28;20062;-25
2023/05/02 06:17:50;;;;;;;11.70;2.38;;;7.40;1.00;;;;;;5096279;28;20113;-25
2023/05/02 06:20:16;;;;;;;10.05;2.53;;;7.40;99.90;;;;;;5095556;28;20122;-25
2023/05/02 06:22:42;;;;;;;9.77;2.50;;;7.30;99.90;;;;;;5078798;28;20052;-25
2023/05/02 06:25:08;;;;;;;8.50;2.40;;;7.30;99.90;;;;;;5095410;28;20044;-25
2023/05/02 06:27:34;;;;;;;8.25;2.35;;;7.30;99.90;;;;;;5096542;28;20500;-25
2023/05/02 06:30:00;;;;;;;12.20;3.15;;;7.30;99.90;;;;;;5096974;28;20366;-25
2023/05/02 06:32:30;;;;;;;9.45;2.90;;;7.60;99.90;;;;;;5096474;28;20055;-25
2023/05/02 06:34:58;;;;;;;10.48;2.58;;;7.30;1.00;;;;;;5096944;28;20044;-25
2023/05/02 06:37:23;;;;;;;14.73;2.30;;;7.30;1.00;;;;;;5095920;28;20052;-25
2023/05/02 06:39:49;;;;;;;7.80;2.00;;;7.30;1.00;;;;;;5095353;28;20150;-25
2023/05/02 06:42:15;;;;;;;13.73;2.70;;;7.30;99.90;;;;;;5096242;28;20138;-25
2023/05/02 06:44:41;;;;;;;10.55;2.45;;;7.40;99.90;;;;;;5097025;28;20122;-25
2023/05/02 06:47:06;;;;;;;7.47;1.75;;;7.50;99.90;;;;;;5096853;28;20097;-26
2023/05/02 06:49:32;;;;;;;12.13;2.78;;;7.60;99.90;;;;;;5096906;28;20356;-25
2023/05/02 06:51:58;;;;;;;8.18;2.13;;;7.70;99.90;;;;;;5096389;28;20070;-25
2023/05/02 06:54:24;;;;;;;9.88;2.08;;;7.80;99.90;;;;;;5096559;28;20052;-25
2023/05/02 06:56:50;;;;;;;10.30;2.20;;;7.90;99.90;;;;;;5096042;28;20122;-25
2023/05/02 06:59:16;;;;;;;10.10;1.95;;;7.90;83.00;;;;;;5095728;28;20442;-25
2023/05/02 07:01:45;;;;;;;6.85;2.10;;;8.10;1.00;;;;;;5095813;28;20040;-25
2023/05/02 07:04:11;;;;;;;10.95;2.13;;;8.10;1.00;;;;;;5095793;28;20055;-25
2023/05/02 07:06:37;;;;;;;12.57;2.25;;;8.20;1.00;;;;;;5096373;28;20051;-25
2023/05/02 07:09:02;;;;;;;8.20;1.85;;;8.20;1.00;;;;;;5095666;28;20487;-25
2023/05/02 07:11:28;;;;;;;8.85;1.60;;;8.30;1.00;;;;;;5095702;28;20048;-25
2023/05/02 07:13:54;;;;;;;8.57;2.08;;;8.20;1.00;;;;;;5077996;28;20044;-25
2023/05/02 07:16:20;;;;;;;12.43;3.45;;;8.00;99.90;;;;;;5095560;28;20490;-26
2023/05/02 07:18:45;;;;;;;14.60;2.90;;;8.20;1.00;;;;;;5096155;28;20056;-26
2023/05/02 07:21:12;;;;;;;13.45;2.75;;;8.00;1.00;;;;;;5094320;28;20097;-26
2023/05/02 07:23:37;;;;;;;11.43;3.58;;;8.00;1.00;;;;;;5095439;28;20052;-26
2023/05/02 07:26:06;;;;;;;10.75;3.05;;;8.10;1.00;;;;;;5095412;28;20111;-25
2023/05/02 07:28:32;;;;;;;8.88;2.80;;;7.90;1.00;;;;;;5095336;28;20054;-26
2023/05/02 07:30:58;;;;;;;12.95;2.50;;;7.90;1.00;;;;;;5095875;28;20098;-26
2023/05/02 07:33:24;;;;;;;8.25;2.00;;;7.90;36.50;;;;;;5094628;28;20083;-25
2023/05/02 07:35:50;;;;;;;9.48;2.60;;;7.80;89.10;;;;;;5095711;28;20047;-26
2023/05/02 07:38:16;;;;;;;11.10;2.67;;;7.80;99.90;;;;;;5095207;28;20047;-26
2023/05/02 07:40:42;;;;;;;9.07;2.40;;;7.90;99.90;;;;;;5095891;28;20039;-25
2023/05/02 07:43:08;;;;;;;10.00;2.28;;;8.00;99.90;;;;;;5095079;28;20048;-26
2023/05/02 07:45:34;;;;;;;5.55;2.08;;;7.80;99.90;;;;;;5095056;28;20052;-26
2023/05/02 07:48:00;;;;;;;8.55;2.10;;;7.80;99.90;;;;;;5094845;28;20113;-28
2023/05/02 07:50:26;;;;;;;10.85;2.00;;;7.90;99.90;;;;;;5094930;28;20047;-26
2023/05/02 07:52:53;;;;;;;9.20;1.60;;;8.30;99.90;;;;;;5095408;28;20056;-26
2023/05/02 07:55:20;;;;;;;4.88;1.20;;;8.40;99.90;;;;;;5094125;28;20048;-26
2023/05/02 07:57:46;;;;;;;6.72;1.55;;;8.70;99.90;;;;;;5093580;28;20048;-26
2023/05/02 08:00:12;;;;;;;8.20;2.13;;;9.10;99.90;;;;;;5093520;28;20052;-26
2023/05/02 08:02:38;;;;;;;6.32;1.40;;;9.50;99.90;;;;;;5093315;28;20094;-26
2023/05/02 08:05:04;;;;;;;5.97;1.50;;;9.40;1.00;;;;;;5094559;28;20089;-26
2023/05/02 08:07:31;;;;;;;7.57;1.55;;;9.30;1.00;;;;;;5094971;28;20051;-26
2023/05/02 08:09:57;;;;;;;8.77;1.88;;;9.10;1.00;;;;;;5093859;28;20090;-26
2023/05/02 08:12:22;;;;;;;10.90;1.88;;;9.00;1.00;;;;;;5094743;28;20079;-26
2023/05/02 08:14:48;;;;;;;10.55;2.13;;;9.00;99.90;;;;;;5093301;28;20401;-27
2023/05/02 08:17:14;;;;;;;6.18;1.15;;;8.90;1.00;;;;;;5094424;28;20131;-26
2023/05/02 08:19:39;;;;;;;6.45;1.60;;;9.00;99.90;;;;;;5093882;28;20048;-27
2023/05/02 08:22:05;;;;;;;5.55;0.93;;;9.00;99.90;;;;;;5095133;28;20040;-27
2023/05/02 08:24:31;;;;;;;9.80;1.48;;;8.90;99.90;;;;;;5094529;28;20040;-26
2023/05/02 08:26:57;;;;;;;8.02;1.48;;;8.90;99.90;;;;;;5093879;28;20044;-26
2023/05/02 08:29:23;;;;;;;6.30;1.30;;;9.40;1.00;;;;;;5094278;28;20044;-26
2023/05/02 08:31:49;;;;;;;8.95;1.33;;;9.90;25.50;;;;;;5095060;28;20048;-26
2023/05/02 08:34:15;;;;;;;7.70;1.10;;;10.40;1.00;;;;;;5094430;28;20543;-26
2023/05/02 08:36:41;;;;;;;6.05;1.10;;;10.50;99.90;;;;;;5093947;28;20131;-26
2023/05/02 08:39:08;;;;;;;4.50;1.10;;;10.30;1.00;;;;;;5094070;28;20450;-26
2023/05/02 08:41:34;;;;;;;5.88;0.75;;;10.10;1.00;;;;;;5092901;28;20134;-26
2023/05/02 08:44:01;;;;;;;6.20;0.80;;;10.20;1.00;;;;;;5094004;28;20134;-26
2023/05/02 08:46:27;;;;;;;8.00;1.80;;;10.30;1.00;;;;;;5094112;28;20047;-26
2023/05/02 08:48:57;;;;;;;5.18;0.85;;;10.50;1.00;;;;;;5093886;28;20040;-26
2023/05/02 08:51:24;;;;;;;3.33;0.73;;;10.60;99.90;;;;;;5093969;28;20444;-27
2023/05/02 08:53:51;;;;;;;6.00;1.15;;;10.60;1.00;;;;;;5092684;28;20458;-26
2023/05/02 08:56:17;;;;;;;7.88;1.27;;;10.40;99.90;;;;;;5093745;28;20497;-26
2023/05/02 08:58:42;;;;;;;7.50;1.23;;;10.00;1.00;;;;;;5093841;28;20044;-26
2023/05/02 09:01:16;;;;;;;4.88;0.57;;;9.90;1.00;;;;;;5094350;28;20048;-26
2023/05/02 09:03:43;;;;;;;3.70;1.15;;;9.60;99.90;;;;;;5093437;28;20457;-26
2023/05/02 09:06:12;;;;;;;6.85;1.10;;;9.50;1.00;;;;;;5093802;28;20101;-26
2023/05/02 09:08:39;;;;;;;5.88;0.95;;;9.50;1.00;;;;;;5093941;28;20044;-26
2023/05/02 09:11:06;;;;;;;8.32;1.02;;;9.50;1.00;;;;;;5094223;28;20044;-26
2023/05/02 09:13:43;;;;;;;3.58;0.80;;;9.80;1.00;;;;;;5093693;28;20059;-26
2023/05/02 09:16:14;;;;;;;3.13;0.68;;;10.00;99.90;;;;;;5094380;28;20051;-26
2023/05/02 09:18:46;;;;;;;5.20;0.98;;;10.10;99.90;;;;;;5093490;28;20101;-26
2023/05/02 09:21:19;;;;;;;4.90;0.80;;;10.60;1.00;;;;;;5093691;28;20055;-26
2023/05/02 09:23:50;;;;;;;4.63;0.68;;;10.90;99.90;;;;;;5097707;28;20056;-26
2023/05/02 09:26:28;;;;;;;5.78;0.70;;;11.10;1.00;;;;;;5097392;28;20040;-26
2023/05/02 09:28:54;;;;;;;3.47;0.50;;;11.00;99.90;;;;;;5080158;28;20056;-26
2023/05/02 09:31:22;;;;;;;1.02;0.25;;;10.40;86.10;;;;;;5097894;28;20040;-26
2023/05/02 09:33:48;;;;;;;4.55;0.55;;;10.10;99.90;;;;;;5097538;28;20052;-26
2023/05/02 09:36:16;;;;;;;3.05;0.60;;;10.00;99.90;;;;;;5098098;28;20054;-26
2023/05/02 09:38:43;;;;;;;3.85;0.95;;;10.10;99.90;;;;;;5096227;28;20460;-26
2023/05/02 09:41:10;;;;;;;3.20;1.02;;;10.40;99.90;;;;;;5079542;28;20406;-26
2023/05/02 09:43:36;;;;;;;8.52;1.17;;;10.90;99.90;;;;;;5096114;28;20105;-28
2023/05/02 09:46:04;;;;;;;7.07;1.00;;;12.40;99.90;;;;;;5097370;28;20105;-26
2023/05/02 09:48:32;;;;;;;6.72;1.65;;;12.60;99.90;;;;;;5097232;28;20109;-27
2023/05/02 09:50:58;;;;;;;7.07;1.15;;;13.70;16.00;;;;;;5097281;28;20059;-27
2023/05/02 09:53:26;;;;;;;7.80;1.02;;;12.90;1.00;;;;;;5097268;28;20044;-27
2023/05/02 09:56:18;;;;;;;5.88;1.30;;;11.30;90.70;;;;;;5097089;28;20047;-27
2023/05/02 09:58:44;;;;;;;5.13;0.70;;;10.40;99.90;;;;;;5094016;28;20088;-26
2023/05/02 10:01:18;;;;;;;3.25;0.90;;;10.00;1.00;;;;;;5097658;28;20453;-27
2023/05/02 10:03:47;;;;;;;6.85;1.23;;;10.00;1.00;;;;;;5097332;28;20048;-27
2023/05/02 10:06:19;;;;;;;4.85;0.60;;;9.90;1.00;;;;;;5096913;28;20077;-27
2023/05/02 10:08:46;;;;;;;6.82;1.05;;;9.80;99.90;;;;;;5097907;28;20052;-27
2023/05/02 10:11:12;;;;;;;7.18;0.70;;;10.10;99.90;;;;;;5096913;28;20090;-27
2023/05/02 10:13:41;;;;;;;3.72;0.77;;;10.20;99.90;;;;;;5096867;28;20481;-28
2023/05/02 10:16:09;;;;;;;3.50;0.88;;;10.30;99.90;;;;;;5096746;28;20048;-27
2023/05/02 10:18:43;;;;;;;5.60;0.88;;;10.20;99.90;;;;;;5096628;28;20493;-27
2023/05/02 10:21:18;;;;;;;5.32;0.73;;;10.30;99.90;;;;;;5095775;28;20079;-27
2023/05/02 10:23:45;;;;;;;5.70;1.00;;;10.70;1.00;;;;;;5097570;28;20052;-27
2023/05/02 10:26:15;;;;;;;4.30;0.68;;;10.30;1.00;;;;;;5096679;28;20046;-27
2023/05/02 10:28:42;;;;;;;4.70;0.80;;;10.10;99.90;;;;;;5096569;28;20509;-27
2023/05/02 10:31:12;;;;;;;8.07;1.40;;;10.20;99.90;;;;;;5096538;28;20079;-27
2023/05/02 10:33:39;;;;;;;4.40;0.75;;;11.80;99.90;;;;;;5095765;28;20129;-27
2023/05/02 10:36:17;;;;;;;4.55;0.90;;;12.80;35.70;;;;;;5078430;28;20127;-28
2023/05/02 10:38:42;;;;;;;4.03;0.85;;;13.90;1.00;;;;;;5096421;28;20044;-27
2023/05/02 10:41:36;;;;;;;4.45;1.02;;;13.70;99.90;;;;;;5097187;28;20097;-27
2023/05/02 10:44:06;;;;;;;3.83;0.57;;;12.10;1.00;;;;;;5095304;28;20571;-27
2023/05/02 10:46:40;;;;;;;4.45;1.20;;;10.70;99.90;;;;;;5096508;28;20044;-27
2023/05/02 10:49:12;;;;;;;7.63;1.15;;;9.90;1.00;;;;;;5096641;28;20051;-27
2023/05/02 10:51:42;;;;;;;5.63;0.93;;;9.50;99.90;;;;;;5096112;28;20457;-26
2023/05/02 10:54:23;;;;;;;3.63;0.80;;;9.60;99.90;;;;;;5095946;28;20052;-27
2023/05/02 10:57:04;;;;;;;7.50;1.13;;;10.70;99.90;;;;;;5096530;28;20511;-27
2023/05/02 10:59:41;;;;;;;7.35;1.00;;;10.70;99.90;;;;;;5095969;28;20392;-27
2023/05/02 11:02:26;;;;;;;4.43;0.90;;;10.20;99.90;;;;;;5095887;28;20482;-27
2023/05/02 11:05:01;;;;;;;5.32;0.77;;;9.90;99.90;;;;;;5095913;28;20505;-27
2023/05/02 11:07:28;;;;;;;4.35;0.68;;;9.70;1.00;;;;;;5094780;28;20083;-27
2023/05/02 11:10:16;;;;;;;6.28;1.15;;;9.60;1.00;;;;;;5096308;28;20168;-27
2023/05/02 11:12:50;;;;;;;3.63;0.80;;;9.60;3.30;;;;;;5096797;28;20052;-26
2023/05/02 11:15:28;;;;;;;3.30;1.08;;;9.80;1.00;;;;;;5096150;28;20040;-27
2023/05/02 11:18:00;;;;;;;1.35;0.50;;;11.10;99.90;;;;;;5096215;28;20566;-26
2023/05/02 11:20:27;;;;;;;3.55;0.70;;;11.70;99.90;;;;;;5095642;28;20051;-27
2023/05/02 11:22:54;;;;;;;4.20;1.10;;;12.00;1.00;;;;;;5094299;28;20048;-27
2023/05/02 11:25:35;;;;;;;2.15;0.80;;;12.40;1.00;;;;;;5095380;28;20055;-27
2023/05/02 11:28:02;;;;;;;4.25;0.80;;;13.00;99.90;;;;;;5095739;28;20048;-27
2023/05/02 11:30:43;;;;;;;3.10;0.55;;;13.30;1.00;;;;;;5095393;28;20056;-27
2023/05/02 11:33:10;;;;;;;4.40;0.93;;;13.60;99.90;;;;;;5088637;28;20502;-27
2023/05/02 11:35:41;;;;;;;4.07;0.70;;;12.50;99.90;;;;;;5089789;28;20039;-26
2023/05/02 11:38:15;;;;;;;2.33;0.47;;;12.00;99.90;;;;;;5076966;28;20044;-27
2023/05/02 11:40:53;;;;;;;6.57;0.80;;;12.10;99.90;;;;;;5073984;28;20087;-27
2023/05/02 11:43:20;;;;;;;7.30;1.00;;;12.90;99.90;;;;;;5075156;28;20087;-28
2023/05/02 11:45:46;;;;;;;3.17;0.50;;;13.30;6.50;;;;;;5073936;28;20534;-27
2023/05/02 11:48:14;;;;;;;3.33;0.88;;;12.90;11.80;;;;;;5073495;28;20044;-27
2023/05/02 11:50:42;;;;;;;5.55;0.95;;;12.50;69.90;;;;;;5074676;28;20567;-27
2023/05/02 11:53:13;;;;;;;6.47;0.70;;;11.30;99.90;;;;;;5074646;28;20048;-27
2023/05/02 11:55:46;;;;;;;6.28;1.10;;;11.20;1.00;;;;;;5074247;28;20053;-27
2023/05/02 11:58:14;;;;;;;3.83;0.60;;;11.40;1.00;;;;;;5074705;28;20189;-27
2023/05/02 12:00:40;;;;;;;2.45;0.60;;;11.20;1.00;;;;;;5074600;28;20090;-27
2023/05/02 12:03:07;;;;;;;2.58;0.70;;;11.30;1.00;;;;;;5074563;28;20123;-27
2023/05/02 12:05:32;;;;;;;0.93;0.25;;;11.40;99.90;;;;;;5073249;28;20410;-27
2023/05/02 12:08:00;;;;;;;5.22;0.50;;;11.50;99.90;;;;;;5074473;28;20052;-27
2023/05/02 12:10:36;;;;;;;3.67;1.00;;;11.80;81.70;;;;;;5074343;28;20047;-27
2023/05/02 12:13:05;;;;;;;2.28;0.30;;;11.80;99.90;;;;;;5074998;28;20040;-27
2023/05/02 12:15:31;;;;;;;4.00;0.63;;;11.90;52.30;;;;;;5073100;28;20044;-27
2023/05/02 12:17:57;;;;;;;3.08;0.30;;;12.00;81.90;;;;;;5074089;28;20053;-27
2023/05/02 12:20:23;;;;;;;2.03;0.43;;;11.90;1.00;;;;;;5075015;28;20131;-27
2023/05/02 12:22:49;;;;;;;2.20;0.40;;;12.00;1.00;;;;;;5072992;28;20406;-27
2023/05/02 12:25:15;;;;;;;4.55;1.10;;;12.20;1.00;;;;;;5072917;28;20547;-27
2023/05/02 12:27:41;;;;;;;1.83;0.20;;;12.50;1.00;;;;;;5073738;28;20052;-27
2023/05/02 12:30:07;;;;;;;5.13;0.93;;;12.20;1.00;;;;;;5074056;28;20489;-27
2023/05/02 12:32:35;;;;;;;3.88;0.30;;;11.90;1.00;;;;;;5073981;28;20059;-27
2023/05/02 12:35:02;;;;;;;2.05;0.20;;;12.30;1.00;;;;;;5074084;28;20045;-27
2023/05/02 12:37:28;;;;;;;3.42;0.30;;;12.70;1.00;;;;;;5072584;28;20049;-27
2023/05/02 12:39:55;;;;;;;1.83;0.30;;;12.70;1.00;;;;;;5074166;28;20108;-27
2023/05/02 12:42:23;;;;;;;3.90;0.20;;;11.90;1.00;;;;;;5040354;28;20436;-27
2023/05/02 12:44:53;;;;;;;1.05;0.30;;;11.60;1.00;;;;;;5072581;28;20071;-27
2023/05/02 12:47:21;;;;;;;5.40;1.50;;;12.00;99.90;;;;;;5073602;28;20051;-27
2023/05/02 12:49:49;;;;;;;8.90;1.02;;;13.00;99.90;;;;;;5073649;28;20056;-27
2023/05/02 12:52:17;;;;;;;3.22;0.40;;;12.80;1.00;;;;;;5072827;28;20406;-27
2023/05/02 12:54:43;;;;;;;7.57;0.90;;;12.90;99.90;;;;;;5073926;28;20490;-28
2023/05/02 12:57:09;;;;;;;4.75;0.90;;;12.60;99.90;;;;;;5072306;28;20123;-27
2023/05/02 12:59:35;;;;;;;4.20;0.70;;;12.30;99.90;;;;;;5072965;28;20051;-27